Bermuda Spirit — C6XT2 — position and weather

sailwx.info

Track history (hours):
 
Tides and Currents Weather Stations Pressure Air Temp Water Temp Dewpoint Dewpoint Depression Visibility Wind Speed Wind Dir Waves Ship Positions

Bermuda Spirit

Last reported at 2015-Jul-03 15:28 UTC. Time now 2015-Jul-04 07:03 UTC.
Position N 40°56' E 028°52'.

Length 274 m; draft 9 m.

Type: Tanker. MMSI: 311020900.

Date/timePositionNaut miles runAvg speedWind from/ knotsBaromVisibWave heightAir tempDewpointWater temp
2015-Jul-03 15:28N 40°56' E 028°52'5 6.1
2015-Jul-03 14:33N 40°51' E 028°49'1211.3
2015-Jul-03 13:29N 40°50' E 028°33'  
2015-Jul-01 04:33N 37°05' E 015°54'1615.8
2015-Jul-01 03:33N 37°08' E 015°35'  
2015-Jun-24 21:33N 35°50' E 022°40'4711.0
2015-Jun-24 17:14N 35°47' E 023°38'2511.7
2015-Jun-24 15:04N 35°47' E 024°09'4312.3
2015-Jun-24 11:33N 35°45' E 025°03'1111.4
2015-Jun-24 10:33N 35°45' E 025°17'1110.9
2015-Jun-24 09:33N 35°44' E 025°30'  
Track history (hours):
 
Tides and Currents Weather Stations Pressure Air Temp Water Temp Dewpoint Dewpoint Depression Visibility Wind Speed Wind Dir Waves Ship Positions

Bermuda Spirit

Last reported at 2015-Jul-03 15:28 UTC. Time now 2015-Jul-04 07:03 UTC.
Position N 40°56' E 028°52'.

Length 274 m; draft 9 m.

Type: Tanker. MMSI: 311020900.

Date/timePositionNaut miles runAvg speedWind from/ knotsBaromVisibWave heightAir tempDewpointWater temp
2015-Jul-03 15:28N 40°56' E 028°52'5 6.1
2015-Jul-03 14:33N 40°51' E 028°49'1211.3
2015-Jul-03 13:29N 40°50' E 028°33'  
2015-Jul-01 04:33N 37°05' E 015°54'1615.8
2015-Jul-01 03:33N 37°08' E 015°35'  
2015-Jun-24 21:33N 35°50' E 022°40'4711.0
2015-Jun-24 17:14N 35°47' E 023°38'2511.7
2015-Jun-24 15:04N 35°47' E 024°09'4312.3
2015-Jun-24 11:33N 35°45' E 025°03'1111.4
2015-Jun-24 10:33N 35°45' E 025°17'1110.9
2015-Jun-24 09:33N 35°44' E 025°30'  

Dump ship's entire track history